sensor_id;sensor_type;location;lat;lon;timestamp;pressure;altitude;pressure_sealevel;temperature;humidity
7157;BME280;3620;49.862;8.758;2023-03-14T00:00:21;97319.22;;;16.76;70.77
7157;BME280;3620;49.862;8.758;2023-03-14T00:02:52;97334.53;;;16.47;72.31
7157;BME280;3620;49.862;8.758;2023-03-14T00:05:19;97327.03;;;16.77;71.37
7157;BME280;3620;49.862;8.758;2023-03-14T00:07:46;97347.00;;;16.64;71.79
7157;BME280;3620;49.862;8.758;2023-03-14T00:10:14;97338.88;;;17.09;69.45
7157;BME280;3620;49.862;8.758;2023-03-14T00:12:41;97342.91;;;16.52;70.82
7157;BME280;3620;49.862;8.758;2023-03-14T00:15:08;97326.28;;;16.67;70.81
7157;BME280;3620;49.862;8.758;2023-03-14T00:17:36;97338.19;;;16.81;69.64
7157;BME280;3620;49.862;8.758;2023-03-14T00:20:06;97345.25;;;16.98;68.81
7157;BME280;3620;49.862;8.758;2023-03-14T00:22:35;97341.06;;;16.70;69.67
7157;BME280;3620;49.862;8.758;2023-03-14T00:25:02;97336.50;;;16.45;70.67
7157;BME280;3620;49.862;8.758;2023-03-14T00:27:29;97327.34;;;16.74;70.58
7157;BME280;3620;49.862;8.758;2023-03-14T00:29:55;97325.16;;;16.70;69.58
7157;BME280;3620;49.862;8.758;2023-03-14T00:32:22;97316.22;;;16.71;69.77
7157;BME280;3620;49.862;8.758;2023-03-14T00:34:49;97313.72;;;16.95;69.00
7157;BME280;3620;49.862;8.758;2023-03-14T00:37:16;97315.16;;;16.90;69.19
7157;BME280;3620;49.862;8.758;2023-03-14T00:39:43;97311.31;;;16.84;69.45
7157;BME280;3620;49.862;8.758;2023-03-14T00:42:10;97318.25;;;16.77;69.49
7157;BME280;3620;49.862;8.758;2023-03-14T00:44:36;97311.06;;;16.95;69.45
7157;BME280;3620;49.862;8.758;2023-03-14T00:47:03;97310.28;;;17.28;67.60
7157;BME280;3620;49.862;8.758;2023-03-14T00:49:29;97316.78;;;17.08;68.21
7157;BME280;3620;49.862;8.758;2023-03-14T00:51:56;97312.06;;;17.20;67.31
7157;BME280;3620;49.862;8.758;2023-03-14T00:54:24;97311.84;;;17.13;67.68
7157;BME280;3620;49.862;8.758;2023-03-14T00:56:50;97317.06;;;16.97;68.52
7157;BME280;3620;49.862;8.758;2023-03-14T00:59:16;97304.28;;;17.26;66.96
7157;BME280;3620;49.862;8.758;2023-03-14T01:01:43;97296.47;;;17.58;66.14
7157;BME280;3620;49.862;8.758;2023-03-14T01:04:10;97301.47;;;17.36;66.34
7157;BME280;3620;49.862;8.758;2023-03-14T01:06:36;97316.19;;;17.22;66.46
7157;BME280;3620;49.862;8.758;2023-03-14T01:09:03;97315.25;;;17.31;66.28
7157;BME280;3620;49.862;8.758;2023-03-14T01:11:33;97324.69;;;17.26;66.82
7157;BME280;3620;49.862;8.758;2023-03-14T01:14:00;97323.34;;;17.22;66.70
7157;BME280;3620;49.862;8.758;2023-03-14T01:16:30;97327.69;;;16.97;67.00
7157;BME280;3620;49.862;8.758;2023-03-14T01:18:56;97341.13;;;17.21;66.26
7157;BME280;3620;49.862;8.758;2023-03-14T01:21:24;97334.63;;;16.98;66.85
7157;BME280;3620;49.862;8.758;2023-03-14T01:23:52;97335.53;;;17.32;65.00
7157;BME280;3620;49.862;8.758;2023-03-14T01:26:21;97334.59;;;17.49;64.70
7157;BME280;3620;49.862;8.758;2023-03-14T01:28:51;97330.47;;;16.70;66.80
7157;BME280;3620;49.862;8.758;2023-03-14T01:31:18;97318.44;;;17.35;64.95
7157;BME280;3620;49.862;8.758;2023-03-14T01:33:45;97323.97;;;16.90;65.86
7157;BME280;3620;49.862;8.758;2023-03-14T01:36:13;97324.53;;;16.76;65.84
7157;BME280;3620;49.862;8.758;2023-03-14T01:38:40;97319.84;;;17.21;64.46
7157;BME280;3620;49.862;8.758;2023-03-14T01:41:07;97308.47;;;17.11;64.44
7157;BME280;3620;49.862;8.758;2023-03-14T01:43:34;97311.50;;;17.16;65.45
7157;BME280;3620;49.862;8.758;2023-03-14T01:46:21;97301.69;;;17.42;64.58
7157;BME280;3620;49.862;8.758;2023-03-14T01:48:54;97305.66;;;17.38;64.35
7157;BME280;3620;49.862;8.758;2023-03-14T01:51:25;97292.53;;;17.37;65.04
7157;BME280;3620;49.862;8.758;2023-03-14T01:53:55;97292.63;;;17.27;65.46
7157;BME280;3620;49.862;8.758;2023-03-14T01:56:26;97291.94;;;17.17;66.32
7157;BME280;3620;49.862;8.758;2023-03-14T01:58:52;97283.19;;;17.67;64.97
7157;BME280;3620;49.862;8.758;2023-03-14T02:01:23;97274.41;;;17.32;66.10
7157;BME280;3620;49.862;8.758;2023-03-14T02:03:53;97277.06;;;16.73;68.48
7157;BME280;3620;49.862;8.758;2023-03-14T02:06:23;97260.66;;;17.45;66.41
7157;BME280;3620;49.862;8.758;2023-03-14T02:08:50;97259.53;;;17.14;67.51
7157;BME280;3620;49.862;8.758;2023-03-14T02:11:18;97255.59;;;16.92;68.46
7157;BME280;3620;49.862;8.758;2023-03-14T02:13:45;97250.78;;;16.96;68.68
7157;BME280;3620;49.862;8.758;2023-03-14T02:16:12;97246.66;;;16.93;68.78
7157;BME280;3620;49.862;8.758;2023-03-14T02:18:40;97250.75;;;16.88;68.48
7157;BME280;3620;49.862;8.758;2023-03-14T02:21:13;97248.41;;;16.84;69.17
7157;BME280;3620;49.862;8.758;2023-03-14T02:23:49;97260.53;;;17.46;66.65
7157;BME280;3620;49.862;8.758;2023-03-14T02:26:21;97248.41;;;17.18;67.47
7157;BME280;3620;49.862;8.758;2023-03-14T02:28:51;97242.78;;;17.13;67.49
7157;BME280;3620;49.862;8.758;2023-03-14T02:31:18;97239.47;;;17.19;67.83
7157;BME280;3620;49.862;8.758;2023-03-14T02:33:46;97226.75;;;16.97;68.53
7157;BME280;3620;49.862;8.758;2023-03-14T02:36:14;97240.81;;;16.64;70.49
7157;BME280;3620;49.862;8.758;2023-03-14T02:38:46;97226.13;;;16.52;70.25
7157;BME280;3620;49.862;8.758;2023-03-14T02:41:13;97240.03;;;16.71;70.00
7157;BME280;3620;49.862;8.758;2023-03-14T02:43:39;97236.06;;;17.01;68.47
7157;BME280;3620;49.862;8.758;2023-03-14T02:46:10;97239.84;;;16.99;68.63
7157;BME280;3620;49.862;8.758;2023-03-14T02:48:40;97230.78;;;16.75;68.97
7157;BME280;3620;49.862;8.758;2023-03-14T02:51:10;97223.75;;;17.00;68.04
7157;BME280;3620;49.862;8.758;2023-03-14T02:53:37;97215.78;;;16.66;69.08
7157;BME280;3620;49.862;8.758;2023-03-14T02:56:05;97205.00;;;16.68;68.98
7157;BME280;3620;49.862;8.758;2023-03-14T02:58:32;97200.19;;;16.97;67.73
7157;BME280;3620;49.862;8.758;2023-03-14T03:00:59;97203.97;;;16.95;68.12
7157;BME280;3620;49.862;8.758;2023-03-14T03:03:26;97197.63;;;17.21;67.66
7157;BME280;3620;49.862;8.758;2023-03-14T03:05:55;97199.19;;;17.40;66.32
7157;BME280;3620;49.862;8.758;2023-03-14T03:08:23;97207.09;;;17.24;67.74
7157;BME280;3620;49.862;8.758;2023-03-14T03:10:51;97204.59;;;17.22;68.00
7157;BME280;3620;49.862;8.758;2023-03-14T03:13:19;97204.28;;;16.92;68.96
7157;BME280;3620;49.862;8.758;2023-03-14T03:15:45;97196.53;;;16.98;68.59
7157;BME280;3620;49.862;8.758;2023-03-14T03:18:12;97198.00;;;16.67;70.04
7157;BME280;3620;49.862;8.758;2023-03-14T03:20:40;97183.13;;;16.74;69.55
7157;BME280;3620;49.862;8.758;2023-03-14T03:23:07;97183.78;;;17.02;68.46
7157;BME280;3620;49.862;8.758;2023-03-14T03:25:33;97179.69;;;16.56;69.47
7157;BME280;3620;49.862;8.758;2023-03-14T03:28:00;97177.03;;;17.23;67.15
7157;BME280;3620;49.862;8.758;2023-03-14T03:30:27;97181.41;;;16.99;67.15
7157;BME280;3620;49.862;8.758;2023-03-14T03:32:53;97170.78;;;16.65;67.32
7157;BME280;3620;49.862;8.758;2023-03-14T03:35:20;97175.22;;;16.82;67.03
7157;BME280;3620;49.862;8.758;2023-03-14T03:37:48;97180.44;;;16.66;67.56
7157;BME280;3620;49.862;8.758;2023-03-14T03:40:14;97169.75;;;16.58;67.19
7157;BME280;3620;49.862;8.758;2023-03-14T03:42:41;97152.66;;;16.52;66.70
7157;BME280;3620;49.862;8.758;2023-03-14T03:45:08;97164.84;;;16.45;66.92
7157;BME280;3620;49.862;8.758;2023-03-14T03:47:35;97163.56;;;16.75;65.42
7157;BME280;3620;49.862;8.758;2023-03-14T03:50:01;97164.19;;;16.18;66.81
7157;BME280;3620;49.862;8.758;2023-03-14T03:52:28;97160.31;;;16.38;67.00
7157;BME280;3620;49.862;8.758;2023-03-14T03:54:55;97155.88;;;16.21;67.09
7157;BME280;3620;49.862;8.758;2023-03-14T03:57:22;97154.16;;;16.11;66.74
7157;BME280;3620;49.862;8.758;2023-03-14T03:59:48;97144.81;;;16.25;66.54
7157;BME280;3620;49.862;8.758;2023-03-14T04:02:15;97146.00;;;16.05;67.17
7157;BME280;3620;49.862;8.758;2023-03-14T04:04:41;97150.47;;;16.04;67.13
7157;BME280;3620;49.862;8.758;2023-03-14T04:07:08;97152.31;;;16.30;66.41
7157;BME280;3620;49.862;8.758;2023-03-14T04:09:37;97149.09;;;16.00;67.13
7157;BME280;3620;49.862;8.758;2023-03-14T04:12:05;97163.00;;;16.20;66.45
7157;BME280;3620;49.862;8.758;2023-03-14T04:14:32;97148.56;;;16.40;66.41
7157;BME280;3620;49.862;8.758;2023-03-14T04:16:58;97149.91;;;16.70;65.04
7157;BME280;3620;49.862;8.758;2023-03-14T04:19:25;97148.69;;;16.31;66.19
7157;BME280;3620;49.862;8.758;2023-03-14T04:21:51;97146.81;;;16.49;65.49
7157;BME280;3620;49.862;8.758;2023-03-14T04:24:18;97157.53;;;16.65;65.31
7157;BME280;3620;49.862;8.758;2023-03-14T04:26:44;97162.66;;;16.41;66.00
7157;BME280;3620;49.862;8.758;2023-03-14T04:29:12;97149.59;;;16.22;66.20
7157;BME280;3620;49.862;8.758;2023-03-14T04:31:38;97154.06;;;15.60;68.05
7157;BME280;3620;49.862;8.758;2023-03-14T04:34:05;97152.59;;;16.01;66.40
7157;BME280;3620;49.862;8.758;2023-03-14T04:36:31;97147.03;;;16.38;65.10
7157;BME280;3620;49.862;8.758;2023-03-14T04:38:58;97142.81;;;16.01;66.32
7157;BME280;3620;49.862;8.758;2023-03-14T04:41:24;97129.72;;;16.26;64.54
7157;BME280;3620;49.862;8.758;2023-03-14T04:43:51;97155.44;;;16.25;65.00
7157;BME280;3620;49.862;8.758;2023-03-14T04:46:18;97142.00;;;16.27;64.67
7157;BME280;3620;49.862;8.758;2023-03-14T04:48:45;97134.63;;;16.12;64.67
7157;BME280;3620;49.862;8.758;2023-03-14T04:51:11;97134.25;;;16.07;65.37
7157;BME280;3620;49.862;8.758;2023-03-14T04:53:38;97133.00;;;16.71;63.84
7157;BME280;3620;49.862;8.758;2023-03-14T04:56:06;97140.56;;;16.58;64.85
7157;BME280;3620;49.862;8.758;2023-03-14T04:58:32;97138.66;;;16.76;64.40
7157;BME280;3620;49.862;8.758;2023-03-14T05:01:01;97125.47;;;17.00;64.21
7157;BME280;3620;49.862;8.758;2023-03-14T05:03:29;97133.13;;;16.95;63.70
7157;BME280;3620;49.862;8.758;2023-03-14T05:05:56;97127.97;;;16.60;64.39
7157;BME280;3620;49.862;8.758;2023-03-14T05:08:24;97108.28;;;16.45;65.03
7157;BME280;3620;49.862;8.758;2023-03-14T05:10:54;97108.63;;;16.50;65.21
7157;BME280;3620;49.862;8.758;2023-03-14T05:13:21;97106.06;;;16.32;65.45
7157;BME280;3620;49.862;8.758;2023-03-14T05:15:47;97093.94;;;16.97;63.90
7157;BME280;3620;49.862;8.758;2023-03-14T05:18:15;97094.47;;;16.67;63.95
7157;BME280;3620;49.862;8.758;2023-03-14T05:20:43;97081.28;;;16.91;63.36
7157;BME280;3620;49.862;8.758;2023-03-14T05:23:10;97081.63;;;16.96;63.50
7157;BME280;3620;49.862;8.758;2023-03-14T05:25:37;97089.13;;;16.51;64.67
7157;BME280;3620;49.862;8.758;2023-03-14T05:28:03;97080.25;;;16.76;63.99
7157;BME280;3620;49.862;8.758;2023-03-14T05:30:30;97081.19;;;16.67;63.71
7157;BME280;3620;49.862;8.758;2023-03-14T05:32:57;97084.75;;;16.83;63.38
7157;BME280;3620;49.862;8.758;2023-03-14T05:35:23;97091.81;;;16.67;63.53
7157;BME280;3620;49.862;8.758;2023-03-14T05:37:51;97097.19;;;16.75;63.70
7157;BME280;3620;49.862;8.758;2023-03-14T05:40:18;97099.41;;;16.54;64.19
7157;BME280;3620;49.862;8.758;2023-03-14T05:42:44;97089.03;;;16.43;64.28
7157;BME280;3620;49.862;8.758;2023-03-14T05:45:11;97093.22;;;16.79;63.91
7157;BME280;3620;49.862;8.758;2023-03-14T05:47:37;97085.38;;;16.69;64.26
7157;BME280;3620;49.862;8.758;2023-03-14T05:50:04;97090.97;;;16.58;64.43
7157;BME280;3620;49.862;8.758;2023-03-14T05:52:31;97086.22;;;16.78;63.08
7157;BME280;3620;49.862;8.758;2023-03-14T05:54:59;97078.84;;;16.98;62.41
7157;BME280;3620;49.862;8.758;2023-03-14T05:57:25;97084.41;;;16.78;62.88
7157;BME280;3620;49.862;8.758;2023-03-14T05:59:52;97089.75;;;16.87;62.91
7157;BME280;3620;49.862;8.758;2023-03-14T06:02:18;97081.63;;;16.96;63.10
7157;BME280;3620;49.862;8.758;2023-03-14T06:04:45;97089.44;;;16.56;63.76
7157;BME280;3620;49.862;8.758;2023-03-14T06:07:11;97082.53;;;16.63;63.43
7157;BME280;3620;49.862;8.758;2023-03-14T06:09:38;97093.41;;;17.51;60.92
7157;BME280;3620;49.862;8.758;2023-03-14T06:12:06;97099.34;;;17.45;60.76
7157;BME280;3620;49.862;8.758;2023-03-14T06:14:33;97100.59;;;17.01;62.36
7157;BME280;3620;49.862;8.758;2023-03-14T06:17:00;97107.63;;;17.34;61.48
7157;BME280;3620;49.862;8.758;2023-03-14T06:19:26;97099.19;;;16.81;62.72
7157;BME280;3620;49.862;8.758;2023-03-14T06:21:52;97099.56;;;17.02;61.93
7157;BME280;3620;49.862;8.758;2023-03-14T06:24:19;97085.72;;;17.24;61.10
7157;BME280;3620;49.862;8.758;2023-03-14T06:26:45;97086.56;;;17.41;60.58
7157;BME280;3620;49.862;8.758;2023-03-14T06:29:13;97082.00;;;17.09;61.66
7157;BME280;3620;49.862;8.758;2023-03-14T06:31:40;97076.97;;;16.90;61.77
7157;BME280;3620;49.862;8.758;2023-03-14T06:34:06;97072.63;;;16.81;61.38
7157;BME280;3620;49.862;8.758;2023-03-14T06:36:33;97082.34;;;17.06;61.04
7157;BME280;3620;49.862;8.758;2023-03-14T06:38:59;97080.47;;;16.49;62.63
7157;BME280;3620;49.862;8.758;2023-03-14T06:41:26;97065.81;;;16.45;63.14
7157;BME280;3620;49.862;8.758;2023-03-14T06:43:52;97076.91;;;16.40;63.43
7157;BME280;3620;49.862;8.758;2023-03-14T06:46:20;97074.91;;;16.60;63.76
7157;BME280;3620;49.862;8.758;2023-03-14T06:48:46;97071.38;;;16.93;62.40
7157;BME280;3620;49.862;8.758;2023-03-14T06:51:13;97071.66;;;16.48;63.20
7157;BME280;3620;49.862;8.758;2023-03-14T06:53:39;97058.41;;;16.98;61.54
7157;BME280;3620;49.862;8.758;2023-03-14T06:56:07;97073.00;;;16.94;61.48
7157;BME280;3620;49.862;8.758;2023-03-14T06:58:34;97073.00;;;16.94;61.32
7157;BME280;3620;49.862;8.758;2023-03-14T07:01:00;97076.47;;;17.77;59.12
7157;BME280;3620;49.862;8.758;2023-03-14T07:03:28;97078.44;;;17.58;59.33
7157;BME280;3620;49.862;8.758;2023-03-14T07:05:55;97086.56;;;17.33;59.80
7157;BME280;3620;49.862;8.758;2023-03-14T07:08:21;97086.28;;;16.86;61.43
7157;BME280;3620;49.862;8.758;2023-03-14T07:10:48;97088.88;;;16.78;61.56
7157;BME280;3620;49.862;8.758;2023-03-14T07:13:14;97083.44;;;17.62;59.83
7157;BME280;3620;49.862;8.758;2023-03-14T07:15:41;97086.47;;;17.01;61.20
7157;BME280;3620;49.862;8.758;2023-03-14T07:18:07;97087.75;;;17.54;59.62
7157;BME280;3620;49.862;8.758;2023-03-14T07:20:35;97082.47;;;17.71;58.98
7157;BME280;3620;49.862;8.758;2023-03-14T07:23:01;97091.09;;;17.73;57.95
7157;BME280;3620;49.862;8.758;2023-03-14T07:25:28;97094.09;;;17.86;57.95
7157;BME280;3620;49.862;8.758;2023-03-14T07:27:55;97091.41;;;17.70;58.46
7157;BME280;3620;49.862;8.758;2023-03-14T07:30:22;97088.63;;;16.97;59.85
7157;BME280;3620;49.862;8.758;2023-03-14T07:32:48;97089.00;;;17.18;59.89
7157;BME280;3620;49.862;8.758;2023-03-14T07:35:15;97081.50;;;17.06;61.04
7157;BME280;3620;49.862;8.758;2023-03-14T07:37:42;97080.78;;;17.53;59.32
7157;BME280;3620;49.862;8.758;2023-03-14T07:40:10;97093.75;;;17.81;58.13
7157;BME280;3620;49.862;8.758;2023-03-14T07:42:40;97093.00;;;17.22;59.82
7157;BME280;3620;49.862;8.758;2023-03-14T07:45:08;97092.34;;;17.44;59.52
7157;BME280;3620;49.862;8.758;2023-03-14T07:47:34;97077.66;;;17.00;59.97
7157;BME280;3620;49.862;8.758;2023-03-14T07:50:01;97080.00;;;16.95;61.05
7157;BME280;3620;49.862;8.758;2023-03-14T07:52:27;97093.69;;;17.32;59.66
7157;BME280;3620;49.862;8.758;2023-03-14T07:54:55;97098.13;;;17.16;59.89
7157;BME280;3620;49.862;8.758;2023-03-14T07:57:22;97092.84;;;16.74;60.77
7157;BME280;3620;49.862;8.758;2023-03-14T07:59:49;97094.34;;;17.42;59.47
7157;BME280;3620;49.862;8.758;2023-03-14T08:02:16;97091.34;;;17.21;60.12
7157;BME280;3620;49.862;8.758;2023-03-14T08:04:45;97095.94;;;17.11;60.72
7157;BME280;3620;49.862;8.758;2023-03-14T08:07:11;97087.38;;;17.49;59.22
7157;BME280;3620;49.862;8.758;2023-03-14T08:09:38;97101.00;;;17.30;59.94
7157;BME280;3620;49.862;8.758;2023-03-14T08:12:06;97099.03;;;17.48;59.45
7157;BME280;3620;49.862;8.758;2023-03-14T08:14:33;97084.38;;;17.36;60.05
7157;BME280;3620;49.862;8.758;2023-03-14T08:17:00;97085.19;;;17.21;59.57
7157;BME280;3620;49.862;8.758;2023-03-14T08:19:26;97084.19;;;17.14;60.56
7157;BME280;3620;49.862;8.758;2023-03-14T08:21:53;97091.13;;;16.99;60.42
7157;BME280;3620;49.862;8.758;2023-03-14T08:24:19;97081.38;;;16.73;60.95
7157;BME280;3620;49.862;8.758;2023-03-14T08:26:46;97086.69;;;17.31;60.30
7157;BME280;3620;49.862;8.758;2023-03-14T08:29:15;97086.03;;;17.21;60.61
7157;BME280;3620;49.862;8.758;2023-03-14T08:31:42;97090.56;;;16.87;61.49
7157;BME280;3620;49.862;8.758;2023-03-14T08:34:09;97081.50;;;17.06;60.91
7157;BME280;3620;49.862;8.758;2023-03-14T08:36:36;97086.66;;;17.07;60.38
7157;BME280;3620;49.862;8.758;2023-03-14T08:39:02;97104.81;;;16.78;62.10
7157;BME280;3620;49.862;8.758;2023-03-14T08:41:32;97091.03;;;17.24;60.22
7157;BME280;3620;49.862;8.758;2023-03-14T08:43:58;97096.41;;;17.56;59.38
7157;BME280;3620;49.862;8.758;2023-03-14T08:46:26;97094.25;;;16.94;61.19
7157;BME280;3620;49.862;8.758;2023-03-14T08:48:53;97103.66;;;17.38;59.85
7157;BME280;3620;49.862;8.758;2023-03-14T08:51:19;97101.44;;;17.02;61.43
7157;BME280;3620;49.862;8.758;2023-03-14T08:53:46;97101.66;;;17.24;60.72
7157;BME280;3620;49.862;8.758;2023-03-14T08:56:12;97085.72;;;17.40;59.98
7157;BME280;3620;49.862;8.758;2023-03-14T08:58:38;97094.31;;;17.10;61.66
7157;BME280;3620;49.862;8.758;2023-03-14T09:01:08;97093.38;;;17.35;60.37
7157;BME280;3620;49.862;8.758;2023-03-14T09:03:36;97091.66;;;17.18;60.82
7157;BME280;3620;49.862;8.758;2023-03-14T09:06:04;97083.84;;;17.17;61.19
7157;BME280;3620;49.862;8.758;2023-03-14T09:08:31;97090.97;;;17.08;61.39
7157;BME280;3620;49.862;8.758;2023-03-14T09:10:57;97098.31;;;17.22;61.48
7157;BME280;3620;49.862;8.758;2023-03-14T09:13:24;97108.19;;;16.96;62.20
7157;BME280;3620;49.862;8.758;2023-03-14T09:15:51;97091.56;;;17.52;60.58
7157;BME280;3620;49.862;8.758;2023-03-14T09:18:17;97091.00;;;17.16;61.42
7157;BME280;3620;49.862;8.758;2023-03-14T09:20:45;97095.06;;;17.52;60.84
7157;BME280;3620;49.862;8.758;2023-03-14T09:23:11;97099.72;;;17.58;59.90
7157;BME280;3620;49.862;8.758;2023-03-14T09:25:38;97102.06;;;18.02;59.51
7157;BME280;3620;49.862;8.758;2023-03-14T09:28:05;97103.34;;;17.41;60.87
7157;BME280;3620;49.862;8.758;2023-03-14T09:30:31;97105.06;;;17.75;59.82
7157;BME280;3620;49.862;8.758;2023-03-14T09:32:58;97098.88;;;17.58;60.36
7157;BME280;3620;49.862;8.758;2023-03-14T09:35:25;97100.03;;;18.12;59.22
7157;BME280;3620;49.862;8.758;2023-03-14T09:37:53;97101.03;;;18.03;58.60
7157;BME280;3620;49.862;8.758;2023-03-14T09:40:21;97100.38;;;18.01;58.80
7157;BME280;3620;49.862;8.758;2023-03-14T09:42:50;97091.56;;;17.44;60.17
7157;BME280;3620;49.862;8.758;2023-03-14T09:45:25;97097.06;;;17.50;60.99
7157;BME280;3620;49.862;8.758;2023-03-14T09:47:53;97106.84;;;18.14;59.46
7157;BME280;3620;49.862;8.758;2023-03-14T09:50:19;97112.47;;;17.47;60.94
7157;BME280;3620;49.862;8.758;2023-03-14T09:52:48;97111.16;;;18.23;59.36
7157;BME280;3620;49.862;8.758;2023-03-14T09:55:20;97113.66;;;18.33;58.60
7157;BME280;3620;49.862;8.758;2023-03-14T09:57:48;97119.63;;;18.35;59.97
7157;BME280;3620;49.862;8.758;2023-03-14T10:00:18;97119.00;;;18.01;61.06
7157;BME280;3620;49.862;8.758;2023-03-14T10:02:50;97126.31;;;18.07;60.61
7157;BME280;3620;49.862;8.758;2023-03-14T10:05:19;97127.66;;;17.79;61.41
7157;BME280;3620;49.862;8.758;2023-03-14T10:07:47;97115.03;;;17.81;61.97
7157;BME280;3620;49.862;8.758;2023-03-14T10:10:16;97119.19;;;18.15;61.79
7157;BME280;3620;49.862;8.758;2023-03-14T10:12:47;97120.63;;;18.18;61.56
7157;BME280;3620;49.862;8.758;2023-03-14T10:15:23;97124.97;;;18.35;60.97
7157;BME280;3620;49.862;8.758;2023-03-14T10:17:50;97126.00;;;18.81;60.25
7157;BME280;3620;49.862;8.758;2023-03-14T10:20:29;97121.09;;;18.62;61.21
7157;BME280;3620;49.862;8.758;2023-03-14T10:22:58;97127.66;;;18.03;63.13
7157;BME280;3620;49.862;8.758;2023-03-14T10:25:27;97114.84;;;18.06;63.57
7157;BME280;3620;49.862;8.758;2023-03-14T10:27:55;97118.66;;;18.12;62.52
7157;BME280;3620;49.862;8.758;2023-03-14T10:30:33;97115.56;;;18.71;61.06
7157;BME280;3620;49.862;8.758;2023-03-14T10:33:08;97109.94;;;18.66;60.71
7157;BME280;3620;49.862;8.758;2023-03-14T10:35:36;97116.28;;;18.49;61.01
7157;BME280;3620;49.862;8.758;2023-03-14T10:38:03;97113.03;;;17.50;63.59
7157;BME280;3620;49.862;8.758;2023-03-14T10:40:31;97102.00;;;18.18;62.21
7157;BME280;3620;49.862;8.758;2023-03-14T10:43:03;97110.69;;;17.96;62.64
7157;BME280;3620;49.862;8.758;2023-03-14T10:45:33;97114.13;;;18.45;61.38
7157;BME280;3620;49.862;8.758;2023-03-14T10:48:16;97109.88;;;18.74;60.58
7157;BME280;3620;49.862;8.758;2023-03-14T10:50:48;97099.00;;;18.37;61.57
7157;BME280;3620;49.862;8.758;2023-03-14T10:53:17;97104.31;;;17.40;65.35
7157;BME280;3620;49.862;8.758;2023-03-14T10:55:45;97114.19;;;17.80;65.23
7157;BME280;3620;49.862;8.758;2023-03-14T10:58:24;97102.94;;;17.20;66.38
7157;BME280;3620;49.862;8.758;2023-03-14T11:01:02;97114.19;;;17.96;65.06
7157;BME280;3620;49.862;8.758;2023-03-14T11:03:33;97111.63;;;17.30;66.05
7157;BME280;3620;49.862;8.758;2023-03-14T11:06:07;97113.31;;;17.39;66.12
7157;BME280;3620;49.862;8.758;2023-03-14T11:08:43;97103.03;;;18.01;64.22
7157;BME280;3620;49.862;8.758;2023-03-14T11:11:18;97110.84;;;18.10;62.95
7157;BME280;3620;49.862;8.758;2023-03-14T11:13:54;97104.06;;;17.68;64.31
7157;BME280;3620;49.862;8.758;2023-03-14T11:16:31;97124.66;;;17.58;65.03
7157;BME280;3620;49.862;8.758;2023-03-14T11:19:10;97106.38;;;17.63;66.23
7157;BME280;3620;49.862;8.758;2023-03-14T11:21:47;97103.34;;;17.41;67.19
7157;BME280;3620;49.862;8.758;2023-03-14T11:27:16;97103.97;;;17.27;68.06
7157;BME280;3620;49.862;8.758;2023-03-14T11:29:52;97107.56;;;17.84;67.22
7157;BME280;3620;49.862;8.758;2023-03-14T11:32:27;97114.03;;;17.66;67.85
7157;BME280;3620;49.862;8.758;2023-03-14T11:34:59;97108.34;;;18.09;67.18
7157;BME280;3620;49.862;8.758;2023-03-14T11:37:32;97117.19;;;17.85;67.50
7157;BME280;3620;49.862;8.758;2023-03-14T11:40:06;97118.03;;;17.78;69.16
7157;BME280;3620;49.862;8.758;2023-03-14T11:42:35;97113.53;;;17.78;69.43
7157;BME280;3620;49.862;8.758;2023-03-14T11:45:14;97121.69;;;17.69;69.26
7157;BME280;3620;49.862;8.758;2023-03-14T11:47:44;97122.06;;;17.32;70.28
7157;BME280;3620;49.862;8.758;2023-03-14T11:50:15;97112.47;;;17.31;70.97
7157;BME280;3620;49.862;8.758;2023-03-14T11:52:46;97117.59;;;17.24;71.70
7157;BME280;3620;49.862;8.758;2023-03-14T11:55:19;97112.28;;;17.32;71.42
7157;BME280;3620;49.862;8.758;2023-03-14T11:57:48;97113.53;;;17.70;69.87
7157;BME280;3620;49.862;8.758;2023-03-14T12:00:19;97119.28;;;17.49;70.26
7157;BME280;3620;49.862;8.758;2023-03-14T12:02:52;97122.00;;;17.74;69.58
7157;BME280;3620;49.862;8.758;2023-03-14T12:08:30;97107.69;;;17.67;70.02
7157;BME280;3620;49.862;8.758;2023-03-14T12:11:01;97123.94;;;17.47;70.53
7157;BME280;3620;49.862;8.758;2023-03-14T12:13:30;97133.16;;;17.11;73.76
7157;BME280;3620;49.862;8.758;2023-03-14T12:16:03;97167.59;;;16.36;77.33
7157;BME280;3620;49.862;8.758;2023-03-14T12:18:32;97166.31;;;15.96;82.20
7157;BME280;3620;49.862;8.758;2023-03-14T12:21:01;97193.59;;;15.71;82.72
7157;BME280;3620;49.862;8.758;2023-03-14T12:23:35;97219.19;;;16.15;81.29
7157;BME280;3620;49.862;8.758;2023-03-14T12:26:08;97236.91;;;15.62;80.71
7157;BME280;3620;49.862;8.758;2023-03-14T12:28:42;97251.63;;;15.20;77.92
7157;BME280;3620;49.862;8.758;2023-03-14T12:31:43;97291.00;;;15.42;75.19
7157;BME280;3620;49.862;8.758;2023-03-14T12:34:30;97301.50;;;14.88;74.30
7157;BME280;3620;49.862;8.758;2023-03-14T12:37:26;97320.69;;;15.36;70.96
7157;BME280;3620;49.862;8.758;2023-03-14T12:40:15;97346.69;;;15.23;69.80
7157;BME280;3620;49.862;8.758;2023-03-14T12:42:52;97337.75;;;15.24;69.57
7157;BME280;3620;49.862;8.758;2023-03-14T12:45:25;97355.00;;;15.37;68.92
7157;BME280;3620;49.862;8.758;2023-03-14T12:47:55;97345.88;;;15.13;68.98
7157;BME280;3620;49.862;8.758;2023-03-14T12:50:30;97365.28;;;15.60;67.30
7157;BME280;3620;49.862;8.758;2023-03-14T12:53:19;97374.88;;;15.05;66.63
7157;BME280;3620;49.862;8.758;2023-03-14T12:55:54;97379.38;;;14.95;64.48
7157;BME280;3620;49.862;8.758;2023-03-14T12:58:28;97377.00;;;15.38;63.18
7157;BME280;3620;49.862;8.758;2023-03-14T13:01:00;97398.72;;;15.05;62.33
7157;BME280;3620;49.862;8.758;2023-03-14T13:03:38;97407.56;;;15.88;60.33
7157;BME280;3620;49.862;8.758;2023-03-14T13:06:05;97427.56;;;16.00;59.14
7157;BME280;3620;49.862;8.758;2023-03-14T13:08:35;97419.00;;;15.52;59.79
7157;BME280;3620;49.862;8.758;2023-03-14T13:11:02;97421.63;;;15.52;59.91
7157;BME280;3620;49.862;8.758;2023-03-14T13:13:30;97430.28;;;15.54;59.67
7157;BME280;3620;49.862;8.758;2023-03-14T13:16:00;97447.59;;;15.39;60.55
7157;BME280;3620;49.862;8.758;2023-03-14T13:18:34;97447.28;;;15.52;61.98
7157;BME280;3620;49.862;8.758;2023-03-14T13:21:03;97466.59;;;15.06;65.02
7157;BME280;3620;49.862;8.758;2023-03-14T13:23:33;97487.94;;;14.95;67.47
7157;BME280;3620;49.862;8.758;2023-03-14T13:26:01;97501.72;;;14.89;69.25
7157;BME280;3620;49.862;8.758;2023-03-14T13:28:29;97501.88;;;14.28;71.66
7157;BME280;3620;49.862;8.758;2023-03-14T13:30:58;97506.19;;;14.29;72.25
7157;BME280;3620;49.862;8.758;2023-03-14T13:33:25;97512.19;;;14.01;74.02
7157;BME280;3620;49.862;8.758;2023-03-14T13:35:57;97531.25;;;14.75;71.64